sensor_id;sensor_type;location;lat;lon;timestamp;temperature;humidity
15409;DHT22;7803;48.130;13.788;2023-12-07T00:00:24;23.60;67.50
15409;DHT22;7803;48.130;13.788;2023-12-07T00:03:28;23.60;67.60
15409;DHT22;7803;48.130;13.788;2023-12-07T00:06:29;23.60;67.60
15409;DHT22;7803;48.130;13.788;2023-12-07T00:09:31;23.60;67.60
15409;DHT22;7803;48.130;13.788;2023-12-07T00:12:33;23.60;67.70
15409;DHT22;7803;48.130;13.788;2023-12-07T00:15:35;23.50;67.60
15409;DHT22;7803;48.130;13.788;2023-12-07T00:18:39;23.50;67.70
15409;DHT22;7803;48.130;13.788;2023-12-07T00:21:40;23.50;67.80
15409;DHT22;7803;48.130;13.788;2023-12-07T00:24:42;23.50;67.90
15409;DHT22;7803;48.130;13.788;2023-12-07T00:27:44;23.50;67.90
15409;DHT22;7803;48.130;13.788;2023-12-07T00:30:46;23.50;67.90
15409;DHT22;7803;48.130;13.788;2023-12-07T00:33:50;23.50;67.90
15409;DHT22;7803;48.130;13.788;2023-12-07T00:36:52;23.50;67.80
15409;DHT22;7803;48.130;13.788;2023-12-07T00:39:54;23.50;67.90
15409;DHT22;7803;48.130;13.788;2023-12-07T00:42:58;23.50;67.90
15409;DHT22;7803;48.130;13.788;2023-12-07T00:46:00;23.40;67.90
15409;DHT22;7803;48.130;13.788;2023-12-07T00:49:04;23.40;67.90
15409;DHT22;7803;48.130;13.788;2023-12-07T00:52:06;23.40;68.00
15409;DHT22;7803;48.130;13.788;2023-12-07T00:55:08;23.40;67.90
15409;DHT22;7803;48.130;13.788;2023-12-07T00:58:10;23.40;67.90
15409;DHT22;7803;48.130;13.788;2023-12-07T01:01:12;23.40;67.90
15409;DHT22;7803;48.130;13.788;2023-12-07T01:04:16;23.40;67.90
15409;DHT22;7803;48.130;13.788;2023-12-07T01:07:18;23.30;67.90
15409;DHT22;7803;48.130;13.788;2023-12-07T01:10:20;23.30;68.00
15409;DHT22;7803;48.130;13.788;2023-12-07T01:13:25;23.30;67.90
15409;DHT22;7803;48.130;13.788;2023-12-07T01:16:27;23.30;67.90
15409;DHT22;7803;48.130;13.788;2023-12-07T01:19:30;23.30;67.90
15409;DHT22;7803;48.130;13.788;2023-12-07T01:22:32;23.30;68.00
15409;DHT22;7803;48.130;13.788;2023-12-07T01:25:34;23.30;68.00
15409;DHT22;7803;48.130;13.788;2023-12-07T01:28:36;23.30;68.10
15409;DHT22;7803;48.130;13.788;2023-12-07T01:31:39;23.30;67.90
15409;DHT22;7803;48.130;13.788;2023-12-07T01:34:43;23.20;67.90
15409;DHT22;7803;48.130;13.788;2023-12-07T01:37:46;23.20;67.90
15409;DHT22;7803;48.130;13.788;2023-12-07T01:40:48;23.20;68.00
15409;DHT22;7803;48.130;13.788;2023-12-07T01:43:50;23.20;67.90
15409;DHT22;7803;48.130;13.788;2023-12-07T01:46:52;23.20;68.00
15409;DHT22;7803;48.130;13.788;2023-12-07T01:49:56;23.10;68.00
15409;DHT22;7803;48.130;13.788;2023-12-07T01:53:02;23.20;68.10
15409;DHT22;7803;48.130;13.788;2023-12-07T01:56:06;23.10;67.90
15409;DHT22;7803;48.130;13.788;2023-12-07T01:59:08;23.10;67.90
15409;DHT22;7803;48.130;13.788;2023-12-07T02:02:11;23.10;67.80
15409;DHT22;7803;48.130;13.788;2023-12-07T02:05:14;23.10;67.70
15409;DHT22;7803;48.130;13.788;2023-12-07T02:08:16;23.10;67.60
15409;DHT22;7803;48.130;13.788;2023-12-07T02:11:18;23.10;67.40
15409;DHT22;7803;48.130;13.788;2023-12-07T02:14:20;23.10;67.30
15409;DHT22;7803;48.130;13.788;2023-12-07T02:17:28;23.10;67.20
15409;DHT22;7803;48.130;13.788;2023-12-07T02:20:39;23.10;67.10
15409;DHT22;7803;48.130;13.788;2023-12-07T02:23:44;23.10;67.10
15409;DHT22;7803;48.130;13.788;2023-12-07T02:26:50;23.10;67.00
15409;DHT22;7803;48.130;13.788;2023-12-07T02:29:52;23.10;66.90
15409;DHT22;7803;48.130;13.788;2023-12-07T02:32:54;23.10;66.80
15409;DHT22;7803;48.130;13.788;2023-12-07T02:35:56;23.10;66.90
15409;DHT22;7803;48.130;13.788;2023-12-07T02:38:59;23.10;66.80
15409;DHT22;7803;48.130;13.788;2023-12-07T02:42:04;23.10;66.70
15409;DHT22;7803;48.130;13.788;2023-12-07T02:45:09;23.10;67.40
15409;DHT22;7803;48.130;13.788;2023-12-07T02:48:11;23.10;68.20
15409;DHT22;7803;48.130;13.788;2023-12-07T02:51:13;23.10;68.30
15409;DHT22;7803;48.130;13.788;2023-12-07T02:54:15;23.10;68.30
15409;DHT22;7803;48.130;13.788;2023-12-07T02:57:18;23.10;68.40
15409;DHT22;7803;48.130;13.788;2023-12-07T03:00:20;23.10;68.30
15409;DHT22;7803;48.130;13.788;2023-12-07T03:03:22;23.10;68.00
15409;DHT22;7803;48.130;13.788;2023-12-07T03:06:24;23.20;68.00
15409;DHT22;7803;48.130;13.788;2023-12-07T03:09:26;23.10;67.50
15409;DHT22;7803;48.130;13.788;2023-12-07T03:12:30;23.10;67.20
15409;DHT22;7803;48.130;13.788;2023-12-07T03:15:32;23.10;66.70
15409;DHT22;7803;48.130;13.788;2023-12-07T03:18:33;23.10;66.60
15409;DHT22;7803;48.130;13.788;2023-12-07T03:21:39;23.10;66.90
15409;DHT22;7803;48.130;13.788;2023-12-07T03:24:45;23.10;67.10
15409;DHT22;7803;48.130;13.788;2023-12-07T03:27:49;23.00;67.50
15409;DHT22;7803;48.130;13.788;2023-12-07T03:30:51;23.00;67.90
15409;DHT22;7803;48.130;13.788;2023-12-07T03:33:53;23.00;68.50
15409;DHT22;7803;48.130;13.788;2023-12-07T03:36:55;23.00;68.80
15409;DHT22;7803;48.130;13.788;2023-12-07T03:39:57;23.00;68.90
15409;DHT22;7803;48.130;13.788;2023-12-07T03:43:00;23.00;69.10
15409;DHT22;7803;48.130;13.788;2023-12-07T03:46:05;23.00;69.00
15409;DHT22;7803;48.130;13.788;2023-12-07T03:49:07;23.00;68.80
15409;DHT22;7803;48.130;13.788;2023-12-07T03:52:09;23.00;68.60
15409;DHT22;7803;48.130;13.788;2023-12-07T03:55:11;23.00;68.50
15409;DHT22;7803;48.130;13.788;2023-12-07T03:58:14;23.00;68.40
15409;DHT22;7803;48.130;13.788;2023-12-07T04:01:16;22.90;69.50
15409;DHT22;7803;48.130;13.788;2023-12-07T04:04:18;23.00;69.00
15409;DHT22;7803;48.130;13.788;2023-12-07T04:07:20;22.90;69.40
15409;DHT22;7803;48.130;13.788;2023-12-07T04:10:24;22.90;70.30
15409;DHT22;7803;48.130;13.788;2023-12-07T04:13:27;22.90;70.50
15409;DHT22;7803;48.130;13.788;2023-12-07T04:16:29;23.00;70.60
15409;DHT22;7803;48.130;13.788;2023-12-07T04:19:31;22.90;70.40
15409;DHT22;7803;48.130;13.788;2023-12-07T04:22:33;22.90;70.30
15409;DHT22;7803;48.130;13.788;2023-12-07T04:25:35;22.90;70.10
15409;DHT22;7803;48.130;13.788;2023-12-07T04:28:39;22.80;70.00
15409;DHT22;7803;48.130;13.788;2023-12-07T04:31:40;22.90;69.90
15409;DHT22;7803;48.130;13.788;2023-12-07T04:34:43;22.90;69.90
15409;DHT22;7803;48.130;13.788;2023-12-07T04:37:45;22.90;69.70
15409;DHT22;7803;48.130;13.788;2023-12-07T04:40:47;22.90;70.50
15409;DHT22;7803;48.130;13.788;2023-12-07T04:43:50;22.90;69.60
15409;DHT22;7803;48.130;13.788;2023-12-07T04:46:52;22.90;69.50
15409;DHT22;7803;48.130;13.788;2023-12-07T04:49:54;22.90;69.40
15409;DHT22;7803;48.130;13.788;2023-12-07T04:52:56;22.90;69.40
15409;DHT22;7803;48.130;13.788;2023-12-07T04:55:58;22.90;69.40
15409;DHT22;7803;48.130;13.788;2023-12-07T04:59:02;22.90;69.40
15409;DHT22;7803;48.130;13.788;2023-12-07T05:02:04;22.80;69.30
15409;DHT22;7803;48.130;13.788;2023-12-07T05:05:07;22.80;69.30
15409;DHT22;7803;48.130;13.788;2023-12-07T05:08:09;22.80;69.30
15409;DHT22;7803;48.130;13.788;2023-12-07T05:11:14;22.80;69.30
15409;DHT22;7803;48.130;13.788;2023-12-07T05:14:19;22.90;69.30
15409;DHT22;7803;48.130;13.788;2023-12-07T05:17:21;22.80;69.20
15409;DHT22;7803;48.130;13.788;2023-12-07T05:20:23;22.90;69.30
15409;DHT22;7803;48.130;13.788;2023-12-07T05:23:27;22.80;69.30
15409;DHT22;7803;48.130;13.788;2023-12-07T05:26:29;22.90;69.30
15409;DHT22;7803;48.130;13.788;2023-12-07T05:29:35;22.90;69.40
15409;DHT22;7803;48.130;13.788;2023-12-07T05:32:37;22.80;69.30
15409;DHT22;7803;48.130;13.788;2023-12-07T05:35:39;22.80;69.40
15409;DHT22;7803;48.130;13.788;2023-12-07T05:38:41;22.80;69.30
15409;DHT22;7803;48.130;13.788;2023-12-07T05:42:04;22.90;69.50
15409;DHT22;7803;48.130;13.788;2023-12-07T05:45:14;22.80;69.40
15409;DHT22;7803;48.130;13.788;2023-12-07T05:48:16;22.90;69.50
15409;DHT22;7803;48.130;13.788;2023-12-07T05:51:18;22.80;69.40
15409;DHT22;7803;48.130;13.788;2023-12-07T05:54:21;22.90;69.50
15409;DHT22;7803;48.130;13.788;2023-12-07T05:57:23;22.90;69.40
15409;DHT22;7803;48.130;13.788;2023-12-07T06:00:27;22.90;72.20
15409;DHT22;7803;48.130;13.788;2023-12-07T06:03:29;23.00;72.30
15409;DHT22;7803;48.130;13.788;2023-12-07T06:06:31;23.00;73.00
15409;DHT22;7803;48.130;13.788;2023-12-07T06:09:33;23.10;72.50
15409;DHT22;7803;48.130;13.788;2023-12-07T06:12:35;23.10;71.50
15409;DHT22;7803;48.130;13.788;2023-12-07T06:15:38;23.20;71.70
15409;DHT22;7803;48.130;13.788;2023-12-07T06:18:43;23.30;72.50
15409;DHT22;7803;48.130;13.788;2023-12-07T06:21:45;23.20;71.40
15409;DHT22;7803;48.130;13.788;2023-12-07T06:24:47;23.30;71.30
15409;DHT22;7803;48.130;13.788;2023-12-07T06:27:50;23.30;71.80
15409;DHT22;7803;48.130;13.788;2023-12-07T06:30:53;23.30;71.50
15409;DHT22;7803;48.130;13.788;2023-12-07T06:33:57;23.30;71.30
15409;DHT22;7803;48.130;13.788;2023-12-07T06:37:01;23.30;70.60
15409;DHT22;7803;48.130;13.788;2023-12-07T06:40:03;23.30;70.20
15409;DHT22;7803;48.130;13.788;2023-12-07T06:43:05;23.20;69.90
15409;DHT22;7803;48.130;13.788;2023-12-07T06:46:08;23.20;71.10
15409;DHT22;7803;48.130;13.788;2023-12-07T06:49:10;23.20;70.50
15409;DHT22;7803;48.130;13.788;2023-12-07T06:52:13;23.20;70.40
15409;DHT22;7803;48.130;13.788;2023-12-07T06:55:15;23.10;70.30
15409;DHT22;7803;48.130;13.788;2023-12-07T06:58:17;23.10;70.40
15409;DHT22;7803;48.130;13.788;2023-12-07T07:01:20;23.10;70.30
15409;DHT22;7803;48.130;13.788;2023-12-07T07:04:22;23.10;70.20
15409;DHT22;7803;48.130;13.788;2023-12-07T07:07:24;23.10;69.60
15409;DHT22;7803;48.130;13.788;2023-12-07T07:10:27;23.10;69.70
15409;DHT22;7803;48.130;13.788;2023-12-07T07:13:29;23.10;69.80
15409;DHT22;7803;48.130;13.788;2023-12-07T07:16:32;23.10;69.60
15409;DHT22;7803;48.130;13.788;2023-12-07T07:19:34;23.10;69.30
15409;DHT22;7803;48.130;13.788;2023-12-07T07:22:36;23.10;69.20
15409;DHT22;7803;48.130;13.788;2023-12-07T07:25:38;23.10;69.20
15409;DHT22;7803;48.130;13.788;2023-12-07T07:28:40;23.10;69.10
15409;DHT22;7803;48.130;13.788;2023-12-07T07:31:43;23.10;69.10
15409;DHT22;7803;48.130;13.788;2023-12-07T07:34:45;23.20;69.10
15409;DHT22;7803;48.130;13.788;2023-12-07T07:37:47;23.10;68.90
15409;DHT22;7803;48.130;13.788;2023-12-07T07:40:49;23.20;68.90
15409;DHT22;7803;48.130;13.788;2023-12-07T07:43:51;23.20;68.90
15409;DHT22;7803;48.130;13.788;2023-12-07T07:46:55;23.20;68.90
15409;DHT22;7803;48.130;13.788;2023-12-07T07:49:57;23.20;68.80
15409;DHT22;7803;48.130;13.788;2023-12-07T07:52:59;23.20;68.90
15409;DHT22;7803;48.130;13.788;2023-12-07T07:56:02;23.20;68.90
15409;DHT22;7803;48.130;13.788;2023-12-07T07:59:04;23.20;69.10
15409;DHT22;7803;48.130;13.788;2023-12-07T08:02:07;23.10;69.10
15409;DHT22;7803;48.130;13.788;2023-12-07T08:05:09;23.10;69.10
15409;DHT22;7803;48.130;13.788;2023-12-07T08:08:11;23.10;69.10
15409;DHT22;7803;48.130;13.788;2023-12-07T08:11:14;23.10;69.20
15409;DHT22;7803;48.130;13.788;2023-12-07T08:14:16;23.10;69.20
15409;DHT22;7803;48.130;13.788;2023-12-07T08:17:19;23.10;69.30
15409;DHT22;7803;48.130;13.788;2023-12-07T08:20:21;23.10;69.30
15409;DHT22;7803;48.130;13.788;2023-12-07T08:23:23;23.10;69.30
15409;DHT22;7803;48.130;13.788;2023-12-07T08:26:25;23.10;69.30
15409;DHT22;7803;48.130;13.788;2023-12-07T08:29:28;23.10;69.30
15409;DHT22;7803;48.130;13.788;2023-12-07T08:32:32;23.10;69.30
15409;DHT22;7803;48.130;13.788;2023-12-07T08:35:37;23.10;69.10
15409;DHT22;7803;48.130;13.788;2023-12-07T08:38:39;23.10;69.20
15409;DHT22;7803;48.130;13.788;2023-12-07T08:41:40;23.10;69.10
15409;DHT22;7803;48.130;13.788;2023-12-07T08:44:43;23.10;69.10
15409;DHT22;7803;48.130;13.788;2023-12-07T08:47:46;23.10;69.10
15409;DHT22;7803;48.130;13.788;2023-12-07T08:50:51;23.00;69.10
15409;DHT22;7803;48.130;13.788;2023-12-07T08:53:53;23.00;69.30
15409;DHT22;7803;48.130;13.788;2023-12-07T08:56:55;23.00;69.20
15409;DHT22;7803;48.130;13.788;2023-12-07T08:59:57;23.00;69.10
15409;DHT22;7803;48.130;13.788;2023-12-07T09:03:01;23.00;69.10
15409;DHT22;7803;48.130;13.788;2023-12-07T09:06:04;23.00;69.10
15409;DHT22;7803;48.130;13.788;2023-12-07T09:09:07;23.00;69.10
15409;DHT22;7803;48.130;13.788;2023-12-07T09:12:09;23.00;69.00
15409;DHT22;7803;48.130;13.788;2023-12-07T09:15:13;23.00;69.00
15409;DHT22;7803;48.130;13.788;2023-12-07T09:18:16;23.00;69.00
15409;DHT22;7803;48.130;13.788;2023-12-07T09:21:18;23.10;69.10
15409;DHT22;7803;48.130;13.788;2023-12-07T09:24:20;23.00;69.10
15409;DHT22;7803;48.130;13.788;2023-12-07T09:27:22;23.10;69.10
15409;DHT22;7803;48.130;13.788;2023-12-07T09:30:25;23.00;69.00
15409;DHT22;7803;48.130;13.788;2023-12-07T09:33:28;23.00;69.00
15409;DHT22;7803;48.130;13.788;2023-12-07T09:36:30;23.00;69.10
15409;DHT22;7803;48.130;13.788;2023-12-07T09:39:32;23.10;69.10
15409;DHT22;7803;48.130;13.788;2023-12-07T09:42:34;23.10;69.10
15409;DHT22;7803;48.130;13.788;2023-12-07T09:45:36;23.10;69.10
15409;DHT22;7803;48.130;13.788;2023-12-07T09:48:43;23.10;69.00
15409;DHT22;7803;48.130;13.788;2023-12-07T09:51:46;23.10;68.90
15409;DHT22;7803;48.130;13.788;2023-12-07T09:54:49;23.10;69.10
15409;DHT22;7803;48.130;13.788;2023-12-07T09:57:52;23.00;69.00
15409;DHT22;7803;48.130;13.788;2023-12-07T10:00:57;23.10;69.20
15409;DHT22;7803;48.130;13.788;2023-12-07T10:04:24;23.10;69.30
15409;DHT22;7803;48.130;13.788;2023-12-07T10:07:32;23.10;69.80
15409;DHT22;7803;48.130;13.788;2023-12-07T10:10:34;23.10;72.20
15409;DHT22;7803;48.130;13.788;2023-12-07T10:13:37;23.10;74.00
15409;DHT22;7803;48.130;13.788;2023-12-07T10:16:52;23.10;73.00
15409;DHT22;7803;48.130;13.788;2023-12-07T10:20:18;23.10;72.70
15409;DHT22;7803;48.130;13.788;2023-12-07T10:23:24;23.10;72.60
15409;DHT22;7803;48.130;13.788;2023-12-07T10:26:28;23.00;72.70
15409;DHT22;7803;48.130;13.788;2023-12-07T10:29:30;23.00;72.70
15409;DHT22;7803;48.130;13.788;2023-12-07T10:32:32;23.00;72.80
15409;DHT22;7803;48.130;13.788;2023-12-07T10:35:40;23.00;72.90
15409;DHT22;7803;48.130;13.788;2023-12-07T10:38:42;23.00;72.90
15409;DHT22;7803;48.130;13.788;2023-12-07T10:41:47;23.00;73.00
15409;DHT22;7803;48.130;13.788;2023-12-07T10:44:50;23.00;73.00
15409;DHT22;7803;48.130;13.788;2023-12-07T10:48:00;23.00;73.00
15409;DHT22;7803;48.130;13.788;2023-12-07T10:51:08;23.00;73.20
15409;DHT22;7803;48.130;13.788;2023-12-07T10:54:15;23.00;74.00
15409;DHT22;7803;48.130;13.788;2023-12-07T10:57:20;23.00;73.20
15409;DHT22;7803;48.130;13.788;2023-12-07T11:00:23;23.00;73.20
15409;DHT22;7803;48.130;13.788;2023-12-07T11:03:28;22.90;73.20
15409;DHT22;7803;48.130;13.788;2023-12-07T11:06:32;22.90;73.30
15409;DHT22;7803;48.130;13.788;2023-12-07T11:09:39;22.90;73.30
15409;DHT22;7803;48.130;13.788;2023-12-07T11:12:49;22.90;73.30
15409;DHT22;7803;48.130;13.788;2023-12-07T11:15:52;22.90;73.80
15409;DHT22;7803;48.130;13.788;2023-12-07T11:18:54;22.90;74.00
15409;DHT22;7803;48.130;13.788;2023-12-07T11:21:57;23.00;74.10
15409;DHT22;7803;48.130;13.788;2023-12-07T11:25:00;23.00;74.00
15409;DHT22;7803;48.130;13.788;2023-12-07T11:28:04;23.00;73.80
15409;DHT22;7803;48.130;13.788;2023-12-07T11:31:07;23.00;73.40
15409;DHT22;7803;48.130;13.788;2023-12-07T11:34:10;23.00;73.50
15409;DHT22;7803;48.130;13.788;2023-12-07T11:37:17;22.90;73.70
15409;DHT22;7803;48.130;13.788;2023-12-07T11:40:19;22.90;73.70
15409;DHT22;7803;48.130;13.788;2023-12-07T11:43:37;22.90;73.70
15409;DHT22;7803;48.130;13.788;2023-12-07T11:46:40;22.90;73.80
15409;DHT22;7803;48.130;13.788;2023-12-07T11:49:42;22.90;73.80
15409;DHT22;7803;48.130;13.788;2023-12-07T11:52:46;22.90;73.90
15409;DHT22;7803;48.130;13.788;2023-12-07T11:55:48;22.90;74.00
15409;DHT22;7803;48.130;13.788;2023-12-07T11:58:50;22.90;74.20
15409;DHT22;7803;48.130;13.788;2023-12-07T12:01:53;22.90;74.40
15409;DHT22;7803;48.130;13.788;2023-12-07T12:04:55;22.90;74.30
15409;DHT22;7803;48.130;13.788;2023-12-07T12:08:01;22.90;74.30
15409;DHT22;7803;48.130;13.788;2023-12-07T12:11:03;22.90;74.20
15409;DHT22;7803;48.130;13.788;2023-12-07T12:14:07;23.00;74.30
15409;DHT22;7803;48.130;13.788;2023-12-07T12:17:09;22.90;74.20
15409;DHT22;7803;48.130;13.788;2023-12-07T12:20:11;23.00;74.30
15409;DHT22;7803;48.130;13.788;2023-12-07T12:23:19;22.90;74.10
15409;DHT22;7803;48.130;13.788;2023-12-07T12:26:21;23.00;74.20
15409;DHT22;7803;48.130;13.788;2023-12-07T12:29:23;23.00;74.20
15409;DHT22;7803;48.130;13.788;2023-12-07T12:32:25;23.00;74.20
15409;DHT22;7803;48.130;13.788;2023-12-07T12:35:28;23.00;74.10
15409;DHT22;7803;48.130;13.788;2023-12-07T12:38:31;23.00;74.20
15409;DHT22;7803;48.130;13.788;2023-12-07T12:41:33;23.00;74.20
15409;DHT22;7803;48.130;13.788;2023-12-07T12:44:35;23.00;74.10
15409;DHT22;7803;48.130;13.788;2023-12-07T12:47:38;23.00;74.20
15409;DHT22;7803;48.130;13.788;2023-12-07T12:50:41;23.00;74.30
15409;DHT22;7803;48.130;13.788;2023-12-07T12:53:46;23.00;74.40
15409;DHT22;7803;48.130;13.788;2023-12-07T12:56:49;22.90;74.40
15409;DHT22;7803;48.130;13.788;2023-12-07T12:59:51;23.00;74.40
15409;DHT22;7803;48.130;13.788;2023-12-07T13:02:53;23.00;74.50
15409;DHT22;7803;48.130;13.788;2023-12-07T13:05:55;23.00;74.60
15409;DHT22;7803;48.130;13.788;2023-12-07T13:08:59;23.00;74.70
15409;DHT22;7803;48.130;13.788;2023-12-07T13:12:01;23.00;74.70
15409;DHT22;7803;48.130;13.788;2023-12-07T13:15:03;23.00;74.70
15409;DHT22;7803;48.130;13.788;2023-12-07T13:18:05;23.00;74.70
15409;DHT22;7803;48.130;13.788;2023-12-07T13:21:07;22.90;74.90
15409;DHT22;7803;48.130;13.788;2023-12-07T13:24:12;22.90;74.90
15409;DHT22;7803;48.130;13.788;2023-12-07T13:27:14;22.90;75.00
15409;DHT22;7803;48.130;13.788;2023-12-07T13:30:16;22.90;75.00
15409;DHT22;7803;48.130;13.788;2023-12-07T13:33:18;22.90;75.20
15409;DHT22;7803;48.130;13.788;2023-12-07T13:36:20;22.90;75.30
15409;DHT22;7803;48.130;13.788;2023-12-07T13:39:24;22.90;75.40
15409;DHT22;7803;48.130;13.788;2023-12-07T13:42:28;22.90;75.40
15409;DHT22;7803;48.130;13.788;2023-12-07T13:45:30;22.80;75.60
15409;DHT22;7803;48.130;13.788;2023-12-07T13:48:32;22.90;76.40
15409;DHT22;7803;48.130;13.788;2023-12-07T13:51:34;22.90;76.90
15409;DHT22;7803;48.130;13.788;2023-12-07T13:54:38;23.00;83.70
15409;DHT22;7803;48.130;13.788;2023-12-07T13:57:40;23.00;86.70
15409;DHT22;7803;48.130;13.788;2023-12-07T14:00:42;23.00;82.20
15409;DHT22;7803;48.130;13.788;2023-12-07T14:03:45;23.10;84.20
15409;DHT22;7803;48.130;13.788;2023-12-07T14:06:47;23.00;79.90
15409;DHT22;7803;48.130;13.788;2023-12-07T14:09:52;23.00;78.00
15409;DHT22;7803;48.130;13.788;2023-12-07T14:12:54;23.00;77.30
15409;DHT22;7803;48.130;13.788;2023-12-07T14:15:56;23.10;77.10
15409;DHT22;7803;48.130;13.788;2023-12-07T14:18:58;23.10;76.60
15409;DHT22;7803;48.130;13.788;2023-12-07T14:22:00;23.00;76.50
15409;DHT22;7803;48.130;13.788;2023-12-07T14:25:04;23.10;76.20
15409;DHT22;7803;48.130;13.788;2023-12-07T14:28:06;23.00;75.70
15409;DHT22;7803;48.130;13.788;2023-12-07T14:31:08;23.00;75.80
15409;DHT22;7803;48.130;13.788;2023-12-07T14:34:17;23.00;75.80
15409;DHT22;7803;48.130;13.788;2023-12-07T14:37:20;23.00;75.60
15409;DHT22;7803;48.130;13.788;2023-12-07T14:40:23;23.00;75.50
15409;DHT22;7803;48.130;13.788;2023-12-07T14:43:25;23.00;75.60
15409;DHT22;7803;48.130;13.788;2023-12-07T14:46:27;23.00;75.60
15409;DHT22;7803;48.130;13.788;2023-12-07T14:49:29;23.00;75.40
15409;DHT22;7803;48.130;13.788;2023-12-07T14:52:31;23.00;75.40
15409;DHT22;7803;48.130;13.788;2023-12-07T14:55:36;23.00;75.20
15409;DHT22;7803;48.130;13.788;2023-12-07T14:58:38;23.00;75.10
15409;DHT22;7803;48.130;13.788;2023-12-07T15:01:40;23.00;75.00
15409;DHT22;7803;48.130;13.788;2023-12-07T15:04:42;23.00;74.90
15409;DHT22;7803;48.130;13.788;2023-12-07T15:07:44;23.00;75.00
15409;DHT22;7803;48.130;13.788;2023-12-07T15:10:47;23.00;74.90
15409;DHT22;7803;48.130;13.788;2023-12-07T15:13:52;23.00;75.00
15409;DHT22;7803;48.130;13.788;2023-12-07T15:16:54;23.00;76.00
15409;DHT22;7803;48.130;13.788;2023-12-07T15:19:56;22.90;76.10
15409;DHT22;7803;48.130;13.788;2023-12-07T15:22:58;22.90;75.90
15409;DHT22;7803;48.130;13.788;2023-12-07T15:26:02;23.00;75.60
15409;DHT22;7803;48.130;13.788;2023-12-07T15:29:04;23.00;75.80
15409;DHT22;7803;48.130;13.788;2023-12-07T15:32:08;23.00;75.70
15409;DHT22;7803;48.130;13.788;2023-12-07T15:35:11;23.00;75.70
15409;DHT22;7803;48.130;13.788;2023-12-07T15:38:13;23.00;75.70
15409;DHT22;7803;48.130;13.788;2023-12-07T15:41:16;23.00;75.70
15409;DHT22;7803;48.130;13.788;2023-12-07T15:44:18;23.00;75.70
15409;DHT22;7803;48.130;13.788;2023-12-07T15:47:20;23.00;75.70
15409;DHT22;7803;48.130;13.788;2023-12-07T15:50:22;23.00;75.60
15409;DHT22;7803;48.130;13.788;2023-12-07T15:53:24;23.00;75.50
15409;DHT22;7803;48.130;13.788;2023-12-07T15:56:27;23.00;75.40
15409;DHT22;7803;48.130;13.788;2023-12-07T15:59:29;23.00;75.30
15409;DHT22;7803;48.130;13.788;2023-12-07T16:02:31;23.00;75.30
15409;DHT22;7803;48.130;13.788;2023-12-07T16:05:33;23.00;75.50
15409;DHT22;7803;48.130;13.788;2023-12-07T16:08:35;23.00;75.30
15409;DHT22;7803;48.130;13.788;2023-12-07T16:11:38;23.00;75.20
15409;DHT22;7803;48.130;13.788;2023-12-07T16:14:40;23.00;75.20
15409;DHT22;7803;48.130;13.788;2023-12-07T16:17:42;23.00;75.00
15409;DHT22;7803;48.130;13.788;2023-12-07T16:20:44;23.00;75.00
15409;DHT22;7803;48.130;13.788;2023-12-07T16:23:47;23.00;75.00
15409;DHT22;7803;48.130;13.788;2023-12-07T16:26:51;23.00;74.90
15409;DHT22;7803;48.130;13.788;2023-12-07T16:29:53;23.00;74.80
15409;DHT22;7803;48.130;13.788;2023-12-07T16:32:55;23.00;74.70
15409;DHT22;7803;48.130;13.788;2023-12-07T16:35:57;23.00;74.70
15409;DHT22;7803;48.130;13.788;2023-12-07T16:38:59;23.10;74.50
15409;DHT22;7803;48.130;13.788;2023-12-07T16:42:04;23.10;74.40
15409;DHT22;7803;48.130;13.788;2023-12-07T16:45:07;23.00;74.10
15409;DHT22;7803;48.130;13.788;2023-12-07T16:48:10;23.00;74.40
15409;DHT22;7803;48.130;13.788;2023-12-07T16:51:12;23.00;74.70
15409;DHT22;7803;48.130;13.788;2023-12-07T16:54:14;23.00;74.70
15409;DHT22;7803;48.130;13.788;2023-12-07T16:57:18;23.10;74.70
15409;DHT22;7803;48.130;13.788;2023-12-07T17:00:20;23.00;74.90
15409;DHT22;7803;48.130;13.788;2023-12-07T17:03:22;23.10;74.80
15409;DHT22;7803;48.130;13.788;2023-12-07T17:06:26;23.00;75.00
15409;DHT22;7803;48.130;13.788;2023-12-07T17:09:28;23.10;75.00
15409;DHT22;7803;48.130;13.788;2023-12-07T17:12:32;23.10;74.70
15409;DHT22;7803;48.130;13.788;2023-12-07T17:15:33;23.10;74.60
15409;DHT22;7803;48.130;13.788;2023-12-07T17:18:36;23.10;74.70
15409;DHT22;7803;48.130;13.788;2023-12-07T17:21:38;23.10;75.70
15409;DHT22;7803;48.130;13.788;2023-12-07T17:24:40;23.10;75.40
15409;DHT22;7803;48.130;13.788;2023-12-07T17:27:43;23.10;75.20
15409;DHT22;7803;48.130;13.788;2023-12-07T17:30:45;23.10;75.00
15409;DHT22;7803;48.130;13.788;2023-12-07T17:33:47;23.10;74.90
15409;DHT22;7803;48.130;13.788;2023-12-07T17:36:49;23.10;74.80
15409;DHT22;7803;48.130;13.788;2023-12-07T17:39:51;23.00;74.70
15409;DHT22;7803;48.130;13.788;2023-12-07T17:42:56;23.00;74.70
15409;DHT22;7803;48.130;13.788;2023-12-07T17:45:58;23.10;74.70
15409;DHT22;7803;48.130;13.788;2023-12-07T17:49:00;23.00;74.60
15409;DHT22;7803;48.130;13.788;2023-12-07T17:52:02;23.00;74.50
15409;DHT22;7803;48.130;13.788;2023-12-07T17:55:05;23.00;74.40
15409;DHT22;7803;48.130;13.788;2023-12-07T17:58:08;23.00;74.40
15409;DHT22;7803;48.130;13.788;2023-12-07T18:01:17;23.10;74.40
15409;DHT22;7803;48.130;13.788;2023-12-07T18:04:20;23.10;74.40
15409;DHT22;7803;48.130;13.788;2023-12-07T18:07:22;23.00;74.20
15409;DHT22;7803;48.130;13.788;2023-12-07T18:10:24;23.00;74.20
15409;DHT22;7803;48.130;13.788;2023-12-07T18:13:27;23.00;74.10
15409;DHT22;7803;48.130;13.788;2023-12-07T18:16:29;23.00;74.20
15409;DHT22;7803;48.130;13.788;2023-12-07T18:19:31;23.00;74.20
15409;DHT22;7803;48.130;13.788;2023-12-07T18:22:33;23.00;74.20
15409;DHT22;7803;48.130;13.788;2023-12-07T18:25:35;23.00;74.10
15409;DHT22;7803;48.130;13.788;2023-12-07T18:28:40;23.00;74.20
15409;DHT22;7803;48.130;13.788;2023-12-07T18:31:43;23.00;74.70
15409;DHT22;7803;48.130;13.788;2023-12-07T18:34:46;23.00;75.20
15409;DHT22;7803;48.130;13.788;2023-12-07T18:37:48;23.00;75.50
15409;DHT22;7803;48.130;13.788;2023-12-07T18:40:50;23.00;75.70
15409;DHT22;7803;48.130;13.788;2023-12-07T18:43:54;23.10;75.40
15409;DHT22;7803;48.130;13.788;2023-12-07T18:46:56;23.10;74.60
15409;DHT22;7803;48.130;13.788;2023-12-07T18:49:58;23.00;74.20
15409;DHT22;7803;48.130;13.788;2023-12-07T18:53:00;23.10;74.20
15409;DHT22;7803;48.130;13.788;2023-12-07T18:56:03;23.10;73.10
15409;DHT22;7803;48.130;13.788;2023-12-07T18:59:07;23.00;71.50
15409;DHT22;7803;48.130;13.788;2023-12-07T19:02:09;23.00;69.80
15409;DHT22;7803;48.130;13.788;2023-12-07T19:05:11;23.00;69.70
15409;DHT22;7803;48.130;13.788;2023-12-07T19:08:13;23.00;68.90
15409;DHT22;7803;48.130;13.788;2023-12-07T19:11:15;23.00;68.10
15409;DHT22;7803;48.130;13.788;2023-12-07T19:14:19;23.00;67.90